Time;durP1;ratioP1;P1;durP2;ratioP2;P2;SDS_P1;SDS_P2;PMS_P1;PMS_P2;Temp;Humidity;BMP_temperature;BMP_pressure;BME280_temperature;BME280_humidity;BME280_pressure;Samples;Min_cycle;Max_cycle;Signal;HPM_P1;HPM_P2
2021/04/29 00:00:19;;;;;;;18.92;14.55;;;8.70;80.80;;;;;;5068635;28;20449;-86
2021/04/29 00:02:45;;;;;;;19.67;15.70;;;8.70;81.10;;;;;;5050227;28;20110;-86
2021/04/29 00:05:17;;;;;;;19.15;14.48;;;8.70;81.40;;;;;;5042263;28;20037;-86
2021/04/29 00:07:43;;;;;;;19.15;14.30;;;8.70;81.60;;;;;;5044111;28;20037;-86
2021/04/29 00:10:21;;;;;;;21.40;15.48;;;8.70;82.20;;;;;;5049732;28;20045;-86
2021/04/29 00:12:47;;;;;;;22.45;14.90;;;8.70;81.80;;;;;;5048566;28;20052;-86
2021/04/29 00:15:15;;;;;;;21.35;14.50;;;8.80;81.90;;;;;;5068250;28;20045;-86
2021/04/29 00:17:41;;;;;;;18.90;13.02;;;8.80;81.80;;;;;;5068579;28;20056;-87
2021/04/29 00:20:10;;;;;;;21.35;14.82;;;8.80;81.80;;;;;;5070739;28;20057;-86
2021/04/29 00:22:36;;;;;;;27.60;15.75;;;8.80;81.90;;;;;;5049219;28;20139;-86
2021/04/29 00:25:03;;;;;;;20.58;14.98;;;8.80;82.00;;;;;;5067200;28;20062;-86
2021/04/29 00:27:29;;;;;;;19.88;15.00;;;8.80;82.00;;;;;;5083527;28;20048;-86
2021/04/29 00:29:55;;;;;;;18.33;14.18;;;8.80;82.10;;;;;;5068717;28;20049;-86
2021/04/29 00:32:20;;;;;;;19.00;12.77;;;8.80;82.10;;;;;;5068078;28;20456;-87
2021/04/29 00:34:46;;;;;;;19.25;13.45;;;8.90;82.20;;;;;;5068280;28;20060;-86
2021/04/29 00:37:12;;;;;;;26.77;13.88;;;8.90;82.00;;;;;;5067825;28;20072;-85
2021/04/29 00:39:38;;;;;;;20.02;13.68;;;9.00;82.10;;;;;;5068050;28;20044;-86
2021/04/29 00:42:04;;;;;;;19.08;13.38;;;9.00;82.30;;;;;;5051562;28;20045;-86
2021/04/29 00:44:29;;;;;;;21.33;13.40;;;9.00;82.20;;;;;;5052189;28;20053;-86
2021/04/29 00:46:57;;;;;;;19.88;14.23;;;9.00;82.00;;;;;;5048059;28;20459;-86
2021/04/29 00:49:23;;;;;;;22.55;14.68;;;9.00;81.90;;;;;;5048509;28;20048;-86
2021/04/29 00:51:49;;;;;;;17.02;13.10;;;9.00;82.10;;;;;;5046119;28;20122;-85
2021/04/29 00:54:15;;;;;;;18.38;14.18;;;9.00;82.10;;;;;;5046795;28;20044;-85
2021/04/29 00:56:41;;;;;;;20.23;14.35;;;9.00;82.20;;;;;;5069778;28;20469;-87
2021/04/29 00:59:07;;;;;;;19.70;14.52;;;8.80;82.30;;;;;;5067582;28;20053;-86
2021/04/29 01:01:34;;;;;;;18.30;13.77;;;8.90;82.50;;;;;;5029555;28;20064;-85
2021/04/29 01:04:06;;;;;;;20.08;14.43;;;8.90;82.30;;;;;;5048311;28;20155;-86
2021/04/29 01:06:40;;;;;;;18.63;14.00;;;8.90;82.50;;;;;;5041942;28;20053;-87
2021/04/29 01:09:06;;;;;;;22.27;14.10;;;8.90;82.50;;;;;;5023230;28;20045;-86
2021/04/29 01:11:36;;;;;;;19.63;14.98;;;8.90;82.50;;;;;;5045900;28;20136;-87
2021/04/29 01:14:04;;;;;;;26.20;15.07;;;8.90;82.60;;;;;;5047802;28;20116;-86
2021/04/29 01:16:31;;;;;;;21.63;14.38;;;8.90;82.70;;;;;;5046760;28;20534;-88
2021/04/29 01:18:58;;;;;;;21.83;14.88;;;8.90;82.40;;;;;;5030091;28;20040;-86
2021/04/29 01:21:28;;;;;;;21.38;14.82;;;8.90;82.50;;;;;;5065893;28;20127;-86
2021/04/29 01:24:00;;;;;;;19.67;14.88;;;8.90;82.30;;;;;;5066336;28;20377;-86
2021/04/29 01:26:32;;;;;;;20.02;14.57;;;8.80;82.20;;;;;;5066739;28;20059;-85
2021/04/29 01:29:05;;;;;;;24.55;15.30;;;8.90;82.30;;;;;;5040587;28;20103;-85
2021/04/29 01:31:33;;;;;;;22.63;14.20;;;8.90;82.30;;;;;;5037545;28;20492;-87
2021/04/29 01:34:01;;;;;;;20.40;15.45;;;8.90;82.40;;;;;;5047375;28;20047;-86
2021/04/29 01:36:29;;;;;;;24.02;15.40;;;8.90;82.50;;;;;;5049442;28;20048;-86
2021/04/29 01:38:59;;;;;;;19.55;15.20;;;8.90;82.60;;;;;;5045418;28;20091;-86
2021/04/29 01:41:25;;;;;;;20.33;14.43;;;8.90;82.60;;;;;;5046954;28;20033;-86
2021/04/29 01:43:52;;;;;;;18.33;14.07;;;8.90;82.80;;;;;;5080106;28;20610;-85
2021/04/29 01:46:18;;;;;;;20.05;15.05;;;8.80;82.70;;;;;;5047619;28;20069;-86
2021/04/29 01:48:44;;;;;;;21.05;14.63;;;8.90;82.50;;;;;;5050479;28;20040;-85
2021/04/29 01:51:11;;;;;;;20.75;14.63;;;8.90;82.50;;;;;;5048599;28;20116;-87
2021/04/29 01:53:39;;;;;;;19.67;14.63;;;8.90;82.40;;;;;;5065851;28;20049;-86
2021/04/29 01:56:05;;;;;;;21.95;14.95;;;8.90;82.50;;;;;;5047084;28;20051;-85
2021/04/29 01:58:31;;;;;;;21.00;14.68;;;8.90;82.50;;;;;;5067122;28;20040;-86
2021/04/29 02:00:57;;;;;;;18.80;13.68;;;8.90;82.40;;;;;;5075124;28;20535;-86
2021/04/29 02:03:23;;;;;;;22.42;16.38;;;8.90;82.40;;;;;;5075600;28;20143;-86
2021/04/29 02:05:50;;;;;;;20.38;15.13;;;8.90;82.40;;;;;;5047559;28;20748;-86
2021/04/29 02:08:16;;;;;;;21.20;14.70;;;8.90;82.50;;;;;;5063870;28;20053;-86
2021/04/29 02:10:42;;;;;;;19.77;14.80;;;8.80;82.50;;;;;;5065874;28;20091;-86
2021/04/29 02:13:12;;;;;;;22.15;15.05;;;8.80;82.50;;;;;;5067432;28;20524;-86
2021/04/29 02:15:44;;;;;;;19.08;14.48;;;8.80;82.70;;;;;;5055394;28;20504;-86
2021/04/29 02:18:12;;;;;;;18.90;13.82;;;8.80;82.50;;;;;;5050107;28;20056;-86
2021/04/29 02:20:44;;;;;;;20.85;14.60;;;8.80;82.60;;;;;;5066550;28;20067;-87
2021/04/29 02:23:13;;;;;;;19.95;14.05;;;8.80;82.70;;;;;;5066230;28;20611;-86
2021/04/29 02:25:42;;;;;;;19.27;14.07;;;8.90;82.60;;;;;;5064709;28;20048;-87
2021/04/29 02:28:08;;;;;;;18.30;13.68;;;8.80;82.50;;;;;;5066861;28;20318;-86
2021/04/29 02:30:34;;;;;;;17.35;12.57;;;8.80;82.50;;;;;;5066461;28;20459;-86
2021/04/29 02:33:02;;;;;;;20.30;13.82;;;8.90;82.40;;;;;;5066427;28;20040;-86
2021/04/29 02:35:28;;;;;;;19.40;13.48;;;8.90;82.40;;;;;;5050141;28;20041;-86
2021/04/29 02:37:55;;;;;;;25.00;14.80;;;8.90;82.50;;;;;;5065979;28;20040;-85
2021/04/29 02:40:22;;;;;;;18.85;11.50;;;8.80;82.60;;;;;;5048676;28;20469;-86
2021/04/29 02:42:49;;;;;;;20.13;14.30;;;8.80;82.80;;;;;;5044952;28;20081;-86
2021/04/29 02:45:16;;;;;;;23.63;14.60;;;8.90;82.50;;;;;;5046278;28;20051;-85
2021/04/29 02:47:47;;;;;;;19.95;14.48;;;8.80;82.50;;;;;;5067235;28;20131;-86
2021/04/29 02:50:16;;;;;;;25.48;14.82;;;8.80;82.80;;;;;;5029023;28;20102;-85
2021/04/29 02:52:45;;;;;;;21.00;14.95;;;8.80;82.80;;;;;;5050924;28;20400;-86
2021/04/29 02:55:12;;;;;;;21.95;14.48;;;8.80;82.70;;;;;;5054411;28;20053;-86
2021/04/29 02:57:39;;;;;;;26.38;14.70;;;8.80;82.70;;;;;;5070331;28;20051;-87
2021/04/29 03:00:07;;;;;;;22.52;15.02;;;8.80;82.80;;;;;;5070696;28;20546;-86
2021/04/29 03:02:33;;;;;;;19.90;14.57;;;8.80;82.70;;;;;;5069819;28;20100;-86
2021/04/29 03:04:59;;;;;;;19.60;14.20;;;8.80;82.90;;;;;;5050960;28;20127;-86
2021/04/29 03:07:25;;;;;;;16.50;13.30;;;8.70;82.90;;;;;;5031628;28;20131;-86
2021/04/29 03:09:52;;;;;;;19.45;14.15;;;8.70;83.00;;;;;;5049635;28;20476;-86
2021/04/29 03:12:17;;;;;;;21.55;14.30;;;8.70;83.10;;;;;;5049687;28;20460;-86
2021/04/29 03:14:43;;;;;;;23.35;14.38;;;8.70;83.00;;;;;;5069561;28;20094;-85
2021/04/29 03:17:09;;;;;;;21.88;14.27;;;8.70;82.80;;;;;;5085586;28;20062;-86
2021/04/29 03:19:35;;;;;;;19.85;13.82;;;8.70;83.30;;;;;;5042737;28;20086;-86
2021/04/29 03:22:01;;;;;;;20.90;14.00;;;8.70;83.30;;;;;;5069415;28;20040;-85
2021/04/29 03:24:27;;;;;;;19.30;14.50;;;8.70;83.70;;;;;;5069195;28;20045;-85
2021/04/29 03:26:53;;;;;;;17.73;13.63;;;8.70;83.50;;;;;;5043464;28;20033;-86
2021/04/29 03:29:18;;;;;;;21.88;14.00;;;8.60;83.70;;;;;;5037461;28;20048;-86
2021/04/29 03:31:44;;;;;;;20.25;13.95;;;8.70;83.60;;;;;;5034931;28;20414;-85
2021/04/29 03:34:10;;;;;;;22.38;14.57;;;8.70;83.70;;;;;;5062181;28;20060;-86
2021/04/29 03:36:37;;;;;;;20.13;14.18;;;8.70;83.90;;;;;;5069078;28;20404;-86
2021/04/29 03:39:03;;;;;;;19.55;14.30;;;8.70;83.90;;;;;;5069901;28;20059;-86
2021/04/29 03:41:30;;;;;;;19.35;14.02;;;8.60;84.20;;;;;;5046239;28;20500;-86
2021/04/29 03:43:56;;;;;;;19.92;14.25;;;8.60;84.40;;;;;;5068361;28;20102;-86
2021/04/29 03:46:22;;;;;;;21.98;15.05;;;8.60;84.50;;;;;;5069971;28;20053;-85
2021/04/29 03:48:48;;;;;;;21.13;14.80;;;8.50;85.00;;;;;;5067849;28;20054;-86
2021/04/29 03:51:14;;;;;;;20.65;15.57;;;8.50;85.00;;;;;;5068961;28;20040;-86
2021/04/29 03:53:40;;;;;;;24.60;14.95;;;8.50;85.00;;;;;;5069952;28;20080;-87
2021/04/29 03:56:06;;;;;;;22.30;15.40;;;8.50;85.60;;;;;;5038448;28;20075;-86
2021/04/29 03:58:31;;;;;;;23.63;16.20;;;8.50;85.30;;;;;;5037168;28;20060;-86
2021/04/29 04:00:57;;;;;;;24.95;17.52;;;8.50;85.30;;;;;;5048149;28;20124;-86
2021/04/29 04:03:23;;;;;;;24.95;17.63;;;8.60;85.50;;;;;;5066090;28;20063;-85
2021/04/29 04:05:49;;;;;;;21.40;16.38;;;8.60;85.60;;;;;;5067758;28;20076;-86
2021/04/29 04:08:15;;;;;;;26.42;17.73;;;8.60;85.60;;;;;;5057948;28;20053;-85
2021/04/29 04:10:40;;;;;;;24.13;16.90;;;8.60;85.70;;;;;;5068544;28;20455;-86
2021/04/29 04:13:14;;;;;;;26.23;17.40;;;8.60;85.90;;;;;;5050826;28;20056;-86
2021/04/29 04:15:40;;;;;;;27.48;19.02;;;8.50;85.90;;;;;;5068658;28;20044;-87
2021/04/29 04:18:06;;;;;;;25.23;17.30;;;8.60;86.00;;;;;;5067723;28;20044;-86
2021/04/29 04:20:32;;;;;;;25.35;16.30;;;8.50;86.30;;;;;;5068530;28;20051;-86
2021/04/29 04:22:58;;;;;;;30.30;17.40;;;8.50;86.40;;;;;;5068441;28;20059;-86
2021/04/29 04:25:24;;;;;;;26.20;18.95;;;8.40;86.40;;;;;;5066990;28;20056;-86
2021/04/29 04:27:50;;;;;;;30.80;19.00;;;8.40;86.60;;;;;;5037143;28;20048;-86
2021/04/29 04:30:16;;;;;;;24.15;18.00;;;8.30;86.90;;;;;;5069381;28;20051;-86
2021/04/29 04:32:42;;;;;;;27.38;17.75;;;8.30;87.10;;;;;;5069300;28;20075;-86
2021/04/29 04:35:09;;;;;;;26.75;18.35;;;8.40;87.20;;;;;;5068360;28;20049;-86
2021/04/29 04:37:35;;;;;;;26.90;17.35;;;8.30;87.20;;;;;;5069058;28;20044;-86
2021/04/29 04:40:01;;;;;;;23.88;16.73;;;8.30;87.60;;;;;;5067376;28;20082;-86
2021/04/29 04:42:27;;;;;;;26.75;17.30;;;8.30;87.70;;;;;;5067583;28;20044;-86
2021/04/29 04:44:53;;;;;;;26.23;17.15;;;8.20;87.70;;;;;;5068559;28;20055;-85
2021/04/29 04:47:19;;;;;;;23.52;13.90;;;8.20;88.00;;;;;;5068185;28;20075;-85
2021/04/29 04:49:44;;;;;;;22.98;17.67;;;8.20;88.50;;;;;;5067239;28;20541;-86
2021/04/29 04:52:10;;;;;;;21.20;16.98;;;8.20;88.80;;;;;;5050988;28;20609;-86
2021/04/29 04:54:36;;;;;;;25.73;17.17;;;8.10;89.70;;;;;;5048049;28;20049;-86
2021/04/29 04:57:02;;;;;;;25.75;17.15;;;8.10;89.40;;;;;;5053582;28;20041;-86
2021/04/29 04:59:28;;;;;;;20.08;13.07;;;8.10;89.40;;;;;;5066527;28;20049;-86
2021/04/29 05:01:54;;;;;;;23.27;17.10;;;8.30;89.80;;;;;;5056725;28;20052;-86
2021/04/29 05:04:22;;;;;;;23.05;17.83;;;8.10;89.90;;;;;;5066870;28;20508;-85
2021/04/29 05:06:48;;;;;;;25.83;17.45;;;8.10;90.20;;;;;;5067532;28;20098;-86
2021/04/29 05:09:16;;;;;;;28.50;17.20;;;8.10;90.40;;;;;;5065305;28;20040;-85
2021/04/29 05:11:42;;;;;;;22.73;16.67;;;8.10;90.40;;;;;;5067722;28;20459;-86
2021/04/29 05:14:07;;;;;;;25.10;16.95;;;8.10;90.30;;;;;;5068388;28;20120;-85
2021/04/29 05:16:33;;;;;;;27.05;16.77;;;8.10;90.40;;;;;;5067645;28;20402;-85
2021/04/29 05:18:59;;;;;;;26.45;17.42;;;8.20;90.40;;;;;;5066625;28;20500;-86
2021/04/29 05:21:25;;;;;;;24.48;16.75;;;8.30;90.40;;;;;;5032704;28;20048;-86
2021/04/29 05:23:51;;;;;;;27.25;18.88;;;8.40;90.30;;;;;;5061017;28;20048;-86
2021/04/29 05:26:17;;;;;;;22.95;16.40;;;8.40;90.30;;;;;;5067348;28;20064;-86
2021/04/29 05:28:43;;;;;;;29.50;19.05;;;8.50;90.30;;;;;;5067988;28;20082;-86
2021/04/29 05:31:09;;;;;;;26.75;16.70;;;8.40;90.20;;;;;;5068181;28;20554;-86
2021/04/29 05:33:34;;;;;;;24.17;17.33;;;8.40;90.30;;;;;;5063973;28;20081;-86
2021/04/29 05:36:00;;;;;;;25.98;18.27;;;8.50;90.20;;;;;;5047138;28;20076;-86
2021/04/29 05:38:26;;;;;;;25.90;18.38;;;8.50;90.30;;;;;;5047377;28;20072;-86
2021/04/29 05:40:52;;;;;;;25.40;17.75;;;8.50;90.20;;;;;;5046044;28;20075;-85
2021/04/29 05:43:17;;;;;;;25.58;18.35;;;8.60;90.20;;;;;;5047943;28;20058;-86
2021/04/29 05:45:43;;;;;;;24.88;17.27;;;8.60;90.10;;;;;;5046967;28;20115;-86
2021/04/29 05:48:09;;;;;;;27.52;17.33;;;8.70;90.00;;;;;;5036711;28;20040;-85
2021/04/29 05:50:35;;;;;;;25.17;18.27;;;8.80;90.00;;;;;;5068666;28;20048;-86
2021/04/29 05:53:01;;;;;;;27.55;19.58;;;8.80;89.60;;;;;;5066134;28;20073;-87
2021/04/29 05:55:27;;;;;;;21.98;15.30;;;8.90;90.00;;;;;;5065301;28;20079;-86
2021/04/29 05:57:57;;;;;;;26.27;17.45;;;9.00;89.40;;;;;;5064329;28;20041;-86
2021/04/29 06:00:23;;;;;;;26.42;19.05;;;9.00;89.00;;;;;;5053159;28;20368;-86
2021/04/29 06:02:49;;;;;;;23.10;17.70;;;9.00;89.10;;;;;;5066465;28;20052;-86
2021/04/29 06:05:15;;;;;;;25.52;17.95;;;9.10;89.00;;;;;;5046271;28;20047;-85
2021/04/29 06:07:41;;;;;;;23.30;18.13;;;9.10;88.80;;;;;;5062048;28;20190;-86
2021/04/29 06:10:07;;;;;;;29.95;18.27;;;9.00;88.60;;;;;;5036724;28;20071;-86
2021/04/29 06:12:33;;;;;;;28.58;17.83;;;9.00;88.80;;;;;;5065781;28;20062;-86
2021/04/29 06:14:59;;;;;;;26.98;18.65;;;9.10;88.80;;;;;;5047395;28;20049;-86
2021/04/29 06:17:25;;;;;;;29.30;20.63;;;9.00;88.70;;;;;;5066327;28;20388;-86
2021/04/29 06:19:51;;;;;;;28.63;19.63;;;9.00;88.80;;;;;;5029586;28;20080;-86
2021/04/29 06:22:16;;;;;;;25.20;18.85;;;9.10;89.10;;;;;;5052533;28;20040;-86
2021/04/29 06:24:43;;;;;;;30.08;19.08;;;9.10;89.00;;;;;;5066240;28;20044;-86
2021/04/29 06:27:09;;;;;;;22.92;16.10;;;9.20;88.60;;;;;;5066743;28;20061;-86
2021/04/29 06:29:35;;;;;;;22.02;16.73;;;9.20;88.80;;;;;;5066609;28;20127;-86
2021/04/29 06:32:02;;;;;;;27.83;18.95;;;9.30;88.20;;;;;;5065648;28;20120;-87
2021/04/29 06:34:28;;;;;;;22.20;14.85;;;9.30;87.70;;;;;;5065761;28;20101;-87
2021/04/29 06:36:54;;;;;;;28.67;16.77;;;9.40;87.80;;;;;;5066028;28;20476;-87
2021/04/29 06:39:20;;;;;;;27.42;17.98;;;9.50;87.50;;;;;;5048654;28;20116;-86
2021/04/29 06:41:46;;;;;;;27.42;19.17;;;9.50;87.10;;;;;;5044235;28;20135;-87
2021/04/29 06:44:13;;;;;;;29.05;19.60;;;9.40;87.00;;;;;;5045913;28;20504;-86
2021/04/29 06:46:59;;;;;;;25.08;18.70;;;9.40;87.30;;;;;;5020877;28;20045;-87
2021/04/29 06:49:26;;;;;;;25.10;19.30;;;9.50;87.40;;;;;;5034499;28;20070;-87
2021/04/29 06:51:52;;;;;;;29.40;19.40;;;9.60;86.80;;;;;;5066193;28;20082;-86
2021/04/29 06:54:18;;;;;;;25.17;18.35;;;9.50;87.40;;;;;;5049183;28;20068;-87
2021/04/29 06:56:44;;;;;;;27.95;18.77;;;9.70;87.40;;;;;;5059192;28;20072;-87
2021/04/29 06:59:10;;;;;;;26.20;18.30;;;9.80;86.60;;;;;;5049180;28;20048;-87
2021/04/29 07:01:36;;;;;;;26.17;17.48;;;9.70;86.30;;;;;;5066499;28;20106;-86
2021/04/29 07:04:03;;;;;;;25.33;17.80;;;9.80;86.30;;;;;;5065224;28;20512;-86
2021/04/29 07:06:29;;;;;;;26.17;17.50;;;9.80;86.70;;;;;;5059920;28;20048;-87
2021/04/29 07:08:56;;;;;;;26.02;16.60;;;9.80;86.50;;;;;;5051408;28;20047;-87
2021/04/29 07:11:22;;;;;;;26.73;18.02;;;9.90;86.20;;;;;;5053491;28;20496;-86
2021/04/29 07:13:47;;;;;;;26.90;17.55;;;9.80;86.40;;;;;;5045384;28;20044;-87
2021/04/29 07:16:13;;;;;;;29.23;18.95;;;9.70;86.40;;;;;;5065371;28;20044;-86
2021/04/29 07:18:39;;;;;;;28.02;18.88;;;9.60;87.00;;;;;;5077945;28;20135;-87
2021/04/29 07:21:05;;;;;;;29.80;19.58;;;9.60;87.70;;;;;;5051086;28;20131;-86
2021/04/29 07:23:31;;;;;;;27.42;18.30;;;9.70;87.30;;;;;;5046073;28;20068;-87
2021/04/29 07:25:57;;;;;;;21.77;15.57;;;9.70;87.20;;;;;;5023648;28;20054;-86
2021/04/29 07:28:24;;;;;;;28.77;18.20;;;9.70;87.10;;;;;;5025588;28;20057;-87
2021/04/29 07:30:51;;;;;;;24.85;16.65;;;9.70;87.30;;;;;;5026276;28;20168;-87
2021/04/29 07:33:17;;;;;;;25.63;16.77;;;9.60;88.10;;;;;;5026094;28;20096;-86
2021/04/29 07:35:43;;;;;;;25.27;17.20;;;9.60;88.00;;;;;;5026721;28;20041;-87
2021/04/29 07:38:10;;;;;;;30.67;16.13;;;9.60;88.00;;;;;;5029503;28;20099;-87
2021/04/29 07:40:35;;;;;;;26.13;17.60;;;9.60;88.30;;;;;;5029088;28;20041;-87
2021/04/29 07:43:02;;;;;;;26.67;17.83;;;9.60;88.40;;;;;;5027011;28;20095;-87
2021/04/29 07:45:29;;;;;;;27.00;19.42;;;9.60;88.00;;;;;;5029979;28;20053;-87
2021/04/29 07:47:54;;;;;;;24.70;13.63;;;9.50;88.60;;;;;;5027920;28;20099;-88
2021/04/29 07:50:21;;;;;;;28.40;18.05;;;9.70;87.90;;;;;;5029238;28;20045;-87
2021/04/29 07:52:46;;;;;;;24.85;16.63;;;9.70;87.90;;;;;;5030338;28;20045;-86
2021/04/29 07:55:14;;;;;;;27.92;17.25;;;9.60;88.50;;;;;;5029563;28;20648;-87
2021/04/29 07:57:40;;;;;;;26.40;17.25;;;9.70;88.00;;;;;;5030780;28;20072;-87
2021/04/29 08:00:08;;;;;;;29.48;18.80;;;9.70;88.20;;;;;;5028769;28;20496;-87
2021/04/29 08:02:34;;;;;;;24.58;15.90;;;9.70;88.40;;;;;;5028765;28;20064;-87
2021/04/29 08:05:00;;;;;;;29.58;19.15;;;9.80;88.10;;;;;;5026392;28;20128;-86
2021/04/29 08:07:26;;;;;;;22.73;16.58;;;9.70;88.20;;;;;;5026006;28;20053;-87
2021/04/29 08:09:52;;;;;;;24.90;16.92;;;9.70;87.90;;;;;;5028857;28;20053;-87
2021/04/29 08:12:19;;;;;;;27.45;17.30;;;9.60;88.20;;;;;;5027231;28;20072;-86
2021/04/29 08:14:44;;;;;;;26.58;15.25;;;9.70;88.10;;;;;;5029751;28;20042;-87
2021/04/29 08:17:10;;;;;;;27.35;18.30;;;9.70;88.60;;;;;;5028424;28;20053;-86
2021/04/29 08:19:36;;;;;;;26.92;17.23;;;9.70;88.30;;;;;;5028899;28;20053;-86
2021/04/29 08:22:03;;;;;;;26.40;17.95;;;9.70;88.40;;;;;;5026812;28;20124;-87
2021/04/29 08:24:29;;;;;;;33.95;20.55;;;9.70;88.50;;;;;;5030055;28;20042;-87
2021/04/29 08:26:55;;;;;;;24.95;18.10;;;9.70;89.40;;;;;;5056982;28;20082;-87
2021/04/29 08:29:23;;;;;;;24.98;15.00;;;9.60;90.00;;;;;;5068523;28;20087;-86
2021/04/29 08:31:49;;;;;;;24.35;16.83;;;9.70;89.30;;;;;;5052746;28;20048;-86
2021/04/29 08:34:15;;;;;;;27.15;18.73;;;9.70;88.80;;;;;;5067226;28;20093;-86
2021/04/29 08:36:41;;;;;;;24.15;14.88;;;9.60;90.00;;;;;;5035832;28;20477;-87
2021/04/29 08:39:08;;;;;;;28.83;20.15;;;9.50;89.50;;;;;;5047717;28;20053;-87
2021/04/29 08:41:35;;;;;;;27.50;19.35;;;9.40;90.00;;;;;;5048307;28;20049;-86
2021/04/29 08:44:02;;;;;;;24.90;16.85;;;9.40;90.10;;;;;;5031380;28;20124;-87
2021/04/29 08:46:27;;;;;;;28.35;18.10;;;9.40;90.30;;;;;;5069361;28;20044;-86
2021/04/29 08:48:55;;;;;;;27.92;17.75;;;9.40;90.00;;;;;;5068777;28;20044;-87
2021/04/29 08:51:22;;;;;;;26.27;19.33;;;9.40;89.80;;;;;;5032487;28;20044;-87
2021/04/29 08:53:49;;;;;;;24.52;16.00;;;9.30;90.00;;;;;;5048960;28;20151;-87
2021/04/29 08:56:21;;;;;;;22.13;16.30;;;9.30;90.10;;;;;;5046628;28;20786;-86
2021/04/29 08:58:55;;;;;;;25.95;17.20;;;9.40;89.90;;;;;;5028979;28;20041;-86
2021/04/29 09:01:21;;;;;;;25.88;17.25;;;9.40;90.10;;;;;;5046865;28;20045;-86
2021/04/29 09:03:48;;;;;;;25.52;17.42;;;9.40;90.30;;;;;;5048096;28;20049;-86
2021/04/29 09:06:15;;;;;;;29.10;18.33;;;9.30;90.20;;;;;;5055571;28;20058;-86
2021/04/29 09:08:42;;;;;;;21.00;15.15;;;9.30;90.50;;;;;;5068255;28;20054;-86
2021/04/29 09:11:16;;;;;;;25.88;17.90;;;9.40;90.30;;;;;;5076376;28;20421;-86
2021/04/29 09:13:59;;;;;;;26.83;19.25;;;9.30;90.50;;;;;;5056948;28;20481;-86
2021/04/29 09:16:46;;;;;;;28.00;19.33;;;9.30;90.70;;;;;;5051872;28;20040;-86
2021/04/29 09:19:22;;;;;;;22.27;15.20;;;9.30;90.80;;;;;;5063157;28;20135;-85
2021/04/29 09:21:48;;;;;;;25.27;16.33;;;9.30;91.20;;;;;;5065223;28;20097;-86
2021/04/29 09:24:14;;;;;;;30.80;18.67;;;9.30;91.40;;;;;;5067363;28;20045;-86
2021/04/29 09:26:41;;;;;;;31.38;19.23;;;9.20;91.60;;;;;;5068844;28;20064;-86
2021/04/29 09:29:15;;;;;;;27.20;20.00;;;9.10;92.00;;;;;;5028901;28;20064;-87
2021/04/29 09:31:45;;;;;;;30.95;20.17;;;9.10;92.10;;;;;;5063741;28;20151;-87
2021/04/29 09:34:11;;;;;;;26.42;18.15;;;9.10;92.20;;;;;;5050641;28;20464;-87
2021/04/29 09:36:42;;;;;;;28.65;18.95;;;9.10;92.30;;;;;;5045643;28;20048;-87
2021/04/29 09:39:19;;;;;;;28.55;19.45;;;9.00;92.70;;;;;;5065911;28;20036;-87
2021/04/29 09:41:47;;;;;;;31.17;20.65;;;9.00;92.80;;;;;;5067420;28;20555;-86
2021/04/29 09:44:18;;;;;;;28.05;21.38;;;8.90;93.20;;;;;;5051878;28;20049;-87
2021/04/29 09:46:50;;;;;;;30.95;21.20;;;8.90;93.50;;;;;;5067950;28;20131;-87
2021/04/29 09:49:39;;;;;;;29.15;20.05;;;8.90;93.60;;;;;;5063006;28;20546;-87
2021/04/29 09:52:21;;;;;;;29.27;19.85;;;8.90;93.40;;;;;;5066319;28;20408;-87
2021/04/29 09:54:47;;;;;;;29.27;18.88;;;8.90;93.60;;;;;;5066569;28;20079;-86
2021/04/29 09:57:18;;;;;;;30.20;20.38;;;9.00;93.50;;;;;;5053149;28;20514;-87
2021/04/29 09:59:55;;;;;;;34.75;20.92;;;9.00;93.80;;;;;;5045889;28;20063;-87
2021/04/29 10:02:21;;;;;;;31.35;21.20;;;9.00;93.80;;;;;;5038548;28;20044;-86
2021/04/29 10:04:47;;;;;;;32.83;21.17;;;9.00;94.20;;;;;;5063663;28;20056;-87
2021/04/29 10:07:15;;;;;;;30.73;20.70;;;9.00;93.90;;;;;;5055400;28;20492;-86
2021/04/29 10:09:43;;;;;;;28.40;18.73;;;9.00;94.10;;;;;;5067741;28;20048;-87
2021/04/29 10:12:11;;;;;;;32.05;20.33;;;9.00;94.50;;;;;;5067733;28;20048;-87
2021/04/29 10:14:42;;;;;;;28.17;18.70;;;8.90;94.50;;;;;;5045627;28;20183;-86
2021/04/29 10:17:10;;;;;;;33.70;20.60;;;9.00;94.50;;;;;;5048590;28;20044;-87
2021/04/29 10:19:47;;;;;;;26.98;16.40;;;8.90;94.50;;;;;;5035313;28;20048;-87
2021/04/29 10:22:15;;;;;;;32.88;20.48;;;9.00;94.50;;;;;;5049823;28;20052;-87
2021/04/29 10:24:42;;;;;;;27.00;17.58;;;8.90;94.50;;;;;;5032254;28;20084;-87
2021/04/29 10:27:10;;;;;;;26.98;19.00;;;8.90;94.40;;;;;;5026082;28;20052;-87
2021/04/29 10:29:37;;;;;;;39.40;21.45;;;8.90;94.70;;;;;;5034256;28;20049;-87
2021/04/29 10:32:09;;;;;;;33.78;22.98;;;8.90;94.90;;;;;;5029716;28;20041;-88
2021/04/29 10:34:47;;;;;;;33.22;21.20;;;8.80;95.00;;;;;;5045164;28;20088;-86
2021/04/29 10:37:26;;;;;;;35.45;21.23;;;8.90;95.10;;;;;;5062040;28;20077;-86
2021/04/29 10:40:04;;;;;;;32.17;20.38;;;8.90;94.90;;;;;;5035384;28;20075;-87
2021/04/29 10:42:42;;;;;;;37.38;23.70;;;8.90;94.90;;;;;;5022782;28;20126;-85
2021/04/29 10:45:10;;;;;;;39.90;25.15;;;8.90;94.90;;;;;;5043275;28;20050;-86
2021/04/29 10:47:37;;;;;;;30.48;20.50;;;8.90;94.70;;;;;;5027069;28;20059;-85
2021/04/29 10:50:17;;;;;;;32.22;22.83;;;8.80;94.80;;;;;;5025451;28;20041;-85
2021/04/29 10:52:51;;;;;;;35.53;23.80;;;8.80;94.80;;;;;;5026265;28;20045;-85
2021/04/29 10:55:28;;;;;;;36.88;26.00;;;8.80;94.90;;;;;;5039946;28;20136;-86
2021/04/29 10:57:55;;;;;;;36.42;25.92;;;8.80;94.90;;;;;;5030714;28;20090;-86
2021/04/29 11:00:21;;;;;;;39.08;26.88;;;8.80;95.10;;;;;;5029252;28;20128;-86
2021/04/29 11:03:02;;;;;;;38.22;25.73;;;8.80;95.00;;;;;;5026811;28;20080;-86
2021/04/29 11:05:29;;;;;;;36.80;27.50;;;8.80;95.10;;;;;;5029186;28;20498;-87
2021/04/29 11:08:01;;;;;;;38.13;28.05;;;8.70;95.40;;;;;;5041934;28;20469;-86
2021/04/29 11:10:35;;;;;;;41.97;29.10;;;8.70;95.50;;;;;;5034210;28;20049;-87
2021/04/29 11:13:02;;;;;;;44.67;29.33;;;8.70;95.30;;;;;;5037654;28;20069;-87
2021/04/29 11:15:30;;;;;;;42.47;28.67;;;8.70;95.30;;;;;;5028208;28;20232;-86
2021/04/29 11:18:01;;;;;;;40.08;27.55;;;8.80;95.40;;;;;;5041124;28;20049;-86
2021/04/29 11:20:27;;;;;;;39.03;28.83;;;8.80;95.30;;;;;;5038440;28;20177;-86
2021/04/29 11:22:56;;;;;;;40.88;29.15;;;8.70;95.40;;;;;;5049378;28;20116;-88
2021/04/29 11:25:23;;;;;;;42.50;29.17;;;8.80;95.30;;;;;;5057091;28;20098;-86
2021/04/29 11:27:55;;;;;;;37.88;27.60;;;8.80;95.30;;;;;;5052878;28;20048;-86
2021/04/29 11:30:21;;;;;;;37.60;26.10;;;8.80;95.20;;;;;;5069179;28;20041;-87
2021/04/29 11:33:17;;;;;;;40.50;28.45;;;8.90;95.20;;;;;;5070674;28;20068;-86
2021/04/29 11:35:43;;;;;;;39.07;28.60;;;8.90;94.90;;;;;;5060329;28;20055;-86
2021/04/29 11:38:10;;;;;;;50.90;30.40;;;8.90;95.00;;;;;;5069220;28;20052;-87
2021/04/29 11:40:37;;;;;;;44.30;29.80;;;8.90;95.00;;;;;;5070276;28;20064;-87
2021/04/29 11:43:05;;;;;;;38.03;25.95;;;8.90;95.10;;;;;;5050520;28;20070;-86
2021/04/29 11:45:34;;;;;;;44.60;29.20;;;9.00;95.10;;;;;;5059007;28;20040;-86
2021/04/29 11:48:07;;;;;;;40.05;28.92;;;9.00;94.90;;;;;;5069845;28;20041;-87
2021/04/29 11:50:53;;;;;;;44.45;29.83;;;9.00;94.90;;;;;;5068298;28;20267;-86
2021/04/29 11:53:24;;;;;;;40.53;29.58;;;9.00;94.90;;;;;;5064496;28;20055;-86
2021/04/29 11:55:59;;;;;;;46.15;31.35;;;9.00;95.00;;;;;;5069228;28;20045;-86
2021/04/29 11:58:25;;;;;;;49.90;32.03;;;8.90;94.90;;;;;;5069069;28;20041;-86
2021/04/29 12:00:53;;;;;;;47.72;32.08;;;8.90;95.00;;;;;;5069194;28;20040;-87
2021/04/29 12:03:22;;;;;;;47.05;31.58;;;8.90;95.40;;;;;;5049557;28;20064;-87
2021/04/29 12:06:02;;;;;;;45.38;30.52;;;8.90;95.20;;;;;;5033603;28;20056;-86
2021/04/29 12:08:33;;;;;;;51.63;32.33;;;8.90;95.20;;;;;;5064444;28;20143;-86
2021/04/29 12:11:04;;;;;;;49.38;31.27;;;8.90;95.30;;;;;;5041292;28;20485;-86
2021/04/29 12:13:35;;;;;;;48.95;30.63;;;8.90;95.40;;;;;;5049660;28;20044;-86
2021/04/29 12:16:07;;;;;;;41.65;29.38;;;8.90;95.40;;;;;;5069355;28;20048;-87
2021/04/29 12:18:34;;;;;;;46.72;30.38;;;8.90;95.50;;;;;;5041760;28;20041;-86
2021/04/29 12:21:00;;;;;;;46.92;30.52;;;8.90;95.50;;;;;;5048774;28;20049;-86
2021/04/29 12:23:27;;;;;;;47.65;32.55;;;8.80;95.50;;;;;;5064125;28;20048;-87
2021/04/29 12:26:01;;;;;;;45.88;31.08;;;8.80;95.60;;;;;;5070268;28;20070;-87
2021/04/29 12:28:36;;;;;;;46.30;31.52;;;8.80;95.50;;;;;;5042877;28;20408;-87
2021/04/29 12:31:21;;;;;;;43.17;30.13;;;8.80;95.50;;;;;;5049360;28;20101;-87
2021/04/29 12:33:51;;;;;;;44.67;31.67;;;8.80;95.70;;;;;;5069982;28;20075;-87
2021/04/29 12:36:17;;;;;;;47.15;33.30;;;8.80;95.70;;;;;;5068510;28;20067;-87
2021/04/29 12:38:43;;;;;;;45.75;31.92;;;8.80;95.80;;;;;;5052516;28;20496;-87